createdAt,value
2018-04-28T00:00:44.926Z,0.00
2018-04-28T00:01:45.109Z,8.00
2018-04-28T00:02:45.292Z,8.00
2018-04-28T00:03:45.477Z,8.00
2018-04-28T00:04:45.662Z,8.00
2018-04-28T00:05:45.848Z,8.00
2018-04-28T00:06:46.032Z,8.00
2018-04-28T00:07:46.218Z,8.00
2018-04-28T00:08:46.402Z,8.00
2018-04-28T00:09:46.588Z,8.00
2018-04-28T00:10:46.775Z,0.00
2018-04-28T00:11:46.958Z,0.00
2018-04-28T00:12:47.146Z,0.00
2018-04-28T00:13:47.330Z,0.00
2018-04-28T00:14:47.517Z,0.00
2018-04-28T00:15:47.705Z,0.00
2018-04-28T00:16:47.890Z,0.00
2018-04-28T00:17:48.076Z,0.00
2018-04-28T00:18:48.260Z,0.00
2018-04-28T00:19:48.446Z,0.00
2018-04-28T00:20:48.633Z,0.00
2018-04-28T00:21:48.817Z,0.00
2018-04-28T00:22:49.001Z,0.00
2018-04-28T00:23:49.187Z,0.00
2018-04-28T00:24:49.371Z,0.00
2018-04-28T00:25:49.556Z,0.00
2018-04-28T00:26:49.742Z,0.00
2018-04-28T00:27:49.927Z,0.00
2018-04-28T00:28:50.113Z,0.00
2018-04-28T00:29:50.300Z,0.00
2018-04-28T00:30:50.484Z,0.00
2018-04-28T00:31:50.669Z,0.00
2018-04-28T00:32:50.853Z,0.00
2018-04-28T00:33:51.042Z,0.00
2018-04-28T00:34:51.222Z,0.00
2018-04-28T00:35:51.407Z,0.00
2018-04-28T00:36:51.594Z,0.00
2018-04-28T00:37:51.779Z,0.00
2018-04-28T00:38:51.964Z,0.00
2018-04-28T00:39:52.148Z,0.00
2018-04-28T00:40:52.335Z,0.00
2018-04-28T00:41:52.519Z,0.00
2018-04-28T00:42:52.705Z,0.00
2018-04-28T00:43:52.891Z,0.00
2018-04-28T00:44:53.074Z,0.00
2018-04-28T00:45:53.261Z,0.00
2018-04-28T00:46:53.446Z,0.00
2018-04-28T00:47:53.631Z,0.00
2018-04-28T00:48:53.815Z,0.00
2018-04-28T00:49:53.999Z,0.00
2018-04-28T00:50:54.184Z,0.00
2018-04-28T00:51:54.369Z,0.00
2018-04-28T00:52:54.554Z,0.00
2018-04-28T00:53:54.743Z,0.00
2018-04-28T00:54:54.927Z,0.00
2018-04-28T00:55:55.109Z,0.00
2018-04-28T00:56:55.295Z,0.00
2018-04-28T00:57:55.481Z,0.00
2018-04-28T00:58:55.666Z,0.00
2018-04-28T00:59:55.850Z,0.00
2018-04-28T01:00:56.036Z,0.00
2018-04-28T01:01:56.220Z,0.00
2018-04-28T01:02:56.406Z,0.00
2018-04-28T01:03:56.592Z,0.00
2018-04-28T01:04:56.778Z,0.00
2018-04-28T01:05:56.963Z,0.00
2018-04-28T01:06:57.149Z,0.00
2018-04-28T01:07:57.332Z,0.00
2018-04-28T01:08:57.518Z,0.00
2018-04-28T01:09:57.701Z,0.00
2018-04-28T01:10:57.887Z,0.00
2018-04-28T01:11:58.073Z,0.00
2018-04-28T01:12:58.255Z,0.00
2018-04-28T01:13:58.440Z,0.00
2018-04-28T01:14:58.623Z,0.00
2018-04-28T01:15:58.806Z,0.00
2018-04-28T01:16:58.996Z,0.00
2018-04-28T01:17:59.179Z,0.00
2018-04-28T01:18:59.364Z,0.00
2018-04-28T01:19:59.552Z,0.00
2018-04-28T01:20:59.737Z,0.00
2018-04-28T01:21:59.924Z,0.00
2018-04-28T01:23:00.109Z,0.00
2018-04-28T01:24:00.291Z,0.00
2018-04-28T01:25:00.479Z,0.00
2018-04-28T01:26:00.660Z,0.00
2018-04-28T01:27:00.850Z,0.00
2018-04-28T01:28:01.033Z,0.00
2018-04-28T01:29:01.218Z,0.00
2018-04-28T01:30:01.441Z,0.00
2018-04-28T01:31:01.588Z,0.00
2018-04-28T01:32:01.774Z,0.00
2018-04-28T01:33:01.960Z,0.00
2018-04-28T01:34:02.147Z,0.00
2018-04-28T01:35:02.333Z,0.00
2018-04-28T01:36:02.519Z,0.00
2018-04-28T01:37:02.705Z,0.00
2018-04-28T01:38:02.891Z,0.00
2018-04-28T01:39:03.077Z,0.00
2018-04-28T01:40:03.268Z,0.00
2018-04-28T01:41:03.446Z,0.00
2018-04-28T01:42:03.637Z,0.00
2018-04-28T01:43:03.818Z,0.00
2018-04-28T01:44:04.005Z,0.00
2018-04-28T01:45:04.191Z,0.00
2018-04-28T01:46:04.377Z,0.00
2018-04-28T01:47:04.563Z,0.00
2018-04-28T01:48:04.751Z,0.00
2018-04-28T01:49:04.942Z,0.00
2018-04-28T01:50:05.293Z,0.00
2018-04-28T01:51:05.354Z,0.00
2018-04-28T01:52:05.542Z,0.00
2018-04-28T01:53:05.728Z,0.00
2018-04-28T01:54:05.912Z,0.00
2018-04-28T01:55:06.099Z,0.00
2018-04-28T01:56:06.283Z,0.00
2018-04-28T01:57:06.469Z,0.00
2018-04-28T01:58:06.657Z,0.00
2018-04-28T01:59:06.841Z,0.00
2018-04-28T02:00:07.029Z,0.00
2018-04-28T02:01:07.215Z,0.00
2018-04-28T02:02:07.399Z,0.00
2018-04-28T02:03:07.586Z,0.00
2018-04-28T02:04:07.771Z,0.00
2018-04-28T02:05:07.958Z,0.00
2018-04-28T02:06:08.143Z,0.00
2018-04-28T02:07:08.329Z,0.00
2018-04-28T02:08:08.517Z,0.00
2018-04-28T02:09:08.697Z,0.00
2018-04-28T02:10:08.882Z,0.00
2018-04-28T02:11:09.070Z,0.00
2018-04-28T02:12:09.253Z,0.00
2018-04-28T02:13:09.440Z,0.00
2018-04-28T02:14:09.627Z,0.00
2018-04-28T02:15:09.812Z,0.00
2018-04-28T02:16:09.998Z,0.00
2018-04-28T02:17:10.183Z,0.00
2018-04-28T02:18:10.367Z,0.00
2018-04-28T02:19:10.553Z,0.00
2018-04-28T02:20:10.740Z,0.00
2018-04-28T02:21:10.926Z,0.00
2018-04-28T02:22:11.110Z,0.00
2018-04-28T02:23:11.295Z,0.00
2018-04-28T02:24:11.479Z,0.00
2018-04-28T02:25:11.664Z,0.00
2018-04-28T02:26:11.850Z,0.00
2018-04-28T02:27:12.037Z,0.00
2018-04-28T02:28:12.221Z,0.00
2018-04-28T02:29:12.410Z,0.00
2018-04-28T02:30:12.590Z,0.00
2018-04-28T02:31:12.776Z,0.00
2018-04-28T02:32:12.962Z,0.00
2018-04-28T02:33:13.147Z,0.00
2018-04-28T02:34:13.334Z,0.00
2018-04-28T02:35:13.519Z,0.00
2018-04-28T02:36:13.704Z,0.00
2018-04-28T02:37:13.889Z,0.00
2018-04-28T02:38:14.076Z,0.00
2018-04-28T02:39:14.260Z,0.00
2018-04-28T02:40:14.447Z,0.00
2018-04-28T02:41:14.633Z,0.00
2018-04-28T02:42:14.818Z,0.00
2018-04-28T02:43:15.002Z,0.00
2018-04-28T02:44:15.189Z,0.00
2018-04-28T02:45:15.373Z,0.00
2018-04-28T02:46:15.560Z,0.00
2018-04-28T02:47:15.747Z,0.00
2018-04-28T02:48:15.931Z,0.00
2018-04-28T02:49:16.114Z,0.00
2018-04-28T02:50:16.302Z,0.00
2018-04-28T02:51:16.488Z,0.00
2018-04-28T02:52:16.674Z,0.00
2018-04-28T02:53:16.859Z,0.00
2018-04-28T02:54:17.044Z,0.00
2018-04-28T02:55:17.231Z,0.00
2018-04-28T02:56:17.415Z,0.00
2018-04-28T02:57:17.597Z,0.00
2018-04-28T02:58:17.783Z,0.00
2018-04-28T02:59:17.970Z,0.00
2018-04-28T03:00:18.156Z,0.00
2018-04-28T03:01:18.342Z,0.00
2018-04-28T03:02:18.529Z,0.00
2018-04-28T03:03:18.713Z,0.00
2018-04-28T03:04:18.903Z,0.00
2018-04-28T03:05:19.088Z,0.00
2018-04-28T03:06:19.270Z,0.00
2018-04-28T03:07:19.458Z,0.00
2018-04-28T03:08:19.644Z,0.00
2018-04-28T03:09:19.828Z,0.00
2018-04-28T03:10:20.013Z,0.00
2018-04-28T03:11:20.200Z,0.00
2018-04-28T03:12:20.384Z,0.00
2018-04-28T03:13:20.571Z,0.00
2018-04-28T03:14:20.755Z,0.00
2018-04-28T03:15:20.939Z,0.00
2018-04-28T03:16:21.128Z,0.00
2018-04-28T03:17:21.312Z,4.00
2018-04-28T03:18:21.498Z,4.00
2018-04-28T03:19:21.684Z,0.00
2018-04-28T03:20:21.870Z,0.00
2018-04-28T03:21:22.059Z,4.00
2018-04-28T03:22:22.236Z,4.00
2018-04-28T03:23:22.423Z,4.00
2018-04-28T03:24:22.610Z,4.00
2018-04-28T03:25:22.791Z,4.00
2018-04-28T03:26:22.975Z,4.00
2018-04-28T03:27:23.152Z,8.00
2018-04-28T03:28:23.353Z,8.00
2018-04-28T03:29:23.533Z,12.00
2018-04-28T03:30:23.720Z,8.00
2018-04-28T03:31:23.905Z,12.00
2018-04-28T03:32:24.091Z,12.00
2018-04-28T03:33:24.279Z,16.00
2018-04-28T03:34:24.461Z,20.00
2018-04-28T03:35:24.648Z,20.00
2018-04-28T03:36:24.832Z,28.00
2018-04-28T03:37:25.018Z,32.00
2018-04-28T03:38:25.201Z,32.00
2018-04-28T03:39:25.388Z,40.00
2018-04-28T03:40:25.570Z,44.00
2018-04-28T03:41:25.757Z,56.00
2018-04-28T03:42:25.943Z,64.00
2018-04-28T03:43:26.125Z,76.00
2018-04-28T03:44:26.311Z,84.00
2018-04-28T03:45:26.495Z,92.00
2018-04-28T03:46:26.679Z,108.00
2018-04-28T03:47:26.864Z,120.00
2018-04-28T03:48:27.048Z,136.00
2018-04-28T03:49:27.235Z,152.00
2018-04-28T03:50:27.422Z,176.00
2018-04-28T03:51:27.603Z,200.00
2018-04-28T03:52:27.790Z,224.00
2018-04-28T03:53:27.987Z,248.00
2018-04-28T03:54:28.161Z,272.00
2018-04-28T03:55:28.346Z,300.00
2018-04-28T03:56:28.532Z,328.00
2018-04-28T03:57:28.717Z,360.00
2018-04-28T03:58:28.900Z,396.00
2018-04-28T03:59:29.087Z,436.00
2018-04-28T04:00:29.271Z,476.00
2018-04-28T04:01:29.455Z,524.00
2018-04-28T04:02:29.641Z,572.00
2018-04-28T04:03:29.829Z,628.00
2018-04-28T04:04:30.014Z,688.00
2018-04-28T04:05:30.200Z,756.00
2018-04-28T04:06:30.384Z,828.00
2018-04-28T04:07:30.568Z,904.00
2018-04-28T04:08:30.753Z,988.00
2018-04-28T04:09:30.939Z,1076.00
2018-04-28T04:10:31.127Z,1184.00
2018-04-28T04:11:31.310Z,1324.00
2018-04-28T04:12:31.495Z,1512.00
2018-04-28T04:13:31.677Z,1696.00
2018-04-28T04:14:31.865Z,1908.00
2018-04-28T04:15:32.049Z,2164.00
2018-04-28T04:16:32.235Z,2424.00
2018-04-28T04:17:32.421Z,2792.00
2018-04-28T04:18:32.607Z,3072.00
2018-04-28T04:19:32.792Z,3096.00
2018-04-28T04:20:32.978Z,3096.00
2018-04-28T04:21:33.164Z,3160.00
2018-04-28T04:22:33.349Z,3488.00
2018-04-28T04:23:33.536Z,3904.00
2018-04-28T04:24:33.721Z,4000.00
2018-04-28T04:25:33.912Z,4476.00
2018-04-28T04:26:34.156Z,5536.00
2018-04-28T04:27:34.278Z,5816.00
2018-04-28T04:28:34.463Z,5796.00
2018-04-28T04:29:34.653Z,5880.00
2018-04-28T04:30:34.834Z,5996.00
2018-04-28T04:31:35.021Z,6004.00
2018-04-28T04:32:35.207Z,6140.00
2018-04-28T04:33:35.392Z,6436.00
2018-04-28T04:34:35.583Z,6532.00
2018-04-28T04:35:35.766Z,7684.00
2018-04-28T04:36:35.951Z,8196.00
2018-04-28T04:37:36.163Z,8188.00
2018-04-28T04:38:36.329Z,8372.00
2018-04-28T04:39:36.510Z,9000.00
2018-04-28T04:40:36.697Z,10068.00
2018-04-28T04:41:36.886Z,11428.00
2018-04-28T04:42:37.069Z,12672.00
2018-04-28T04:43:37.257Z,12900.00
2018-04-28T04:44:37.443Z,13172.00
2018-04-28T04:45:37.632Z,13440.00
2018-04-28T04:46:37.817Z,13856.00
2018-04-28T04:47:38.008Z,16352.00
2018-04-28T04:48:38.192Z,17472.00
2018-04-28T04:49:38.382Z,18432.00
2018-04-28T04:50:38.570Z,20640.00
2018-04-28T04:51:38.758Z,23232.00
2018-04-28T04:52:38.944Z,20288.00
2018-04-28T04:53:39.131Z,18592.00
2018-04-28T04:54:39.319Z,22432.00
2018-04-28T04:55:39.507Z,23424.00
2018-04-28T04:56:39.698Z,23232.00
2018-04-28T04:57:39.882Z,19296.00
2018-04-28T04:58:40.071Z,20288.00
2018-04-28T04:59:40.260Z,23616.00
2018-04-28T05:00:40.449Z,29312.00
2018-04-28T05:01:40.639Z,34880.00
2018-04-28T05:02:40.827Z,34336.00
2018-04-28T05:03:41.016Z,35392.00
2018-04-28T05:04:41.203Z,36480.00
2018-04-28T05:05:41.395Z,37376.00
2018-04-28T05:06:41.585Z,37152.00
2018-04-28T05:07:41.776Z,34400.00
2018-04-28T05:08:41.963Z,38336.00
2018-04-28T05:09:42.157Z,22272.00
2018-04-28T05:10:42.349Z,41216.00
2018-04-28T05:11:42.535Z,44448.00
2018-04-28T05:12:42.729Z,44928.00
2018-04-28T05:13:42.918Z,42656.00
2018-04-28T05:14:43.108Z,41536.00
2018-04-28T05:15:43.300Z,43360.00
2018-04-28T05:16:43.493Z,44768.00
2018-04-28T05:17:43.685Z,45792.00
2018-04-28T05:18:43.874Z,46368.00
2018-04-28T05:19:44.067Z,45248.00
2018-04-28T05:20:44.259Z,43680.00
2018-04-28T05:21:44.454Z,43424.00
2018-04-28T05:22:44.644Z,43808.00
2018-04-28T05:23:44.837Z,45248.00
2018-04-28T05:24:45.028Z,45696.00
2018-04-28T05:25:45.221Z,45536.00
2018-04-28T05:26:45.417Z,42400.00
2018-04-28T05:27:45.609Z,47904.00
2018-04-28T05:28:45.801Z,46144.00
2018-04-28T05:29:45.994Z,48832.00
2018-04-28T05:30:46.189Z,52960.00
2018-04-28T05:31:46.384Z,56416.00
2018-04-28T05:32:46.578Z,56448.00
2018-04-28T05:33:46.774Z,57152.00
2018-04-28T05:34:46.969Z,49760.00
2018-04-28T05:35:47.164Z,51008.00
2018-04-28T05:36:47.359Z,46240.00
2018-04-28T05:37:47.559Z,51232.00
2018-04-28T05:38:47.750Z,52320.00
2018-04-28T05:39:47.950Z,47264.00
2018-04-28T05:40:48.142Z,53856.00
2018-04-28T05:41:48.340Z,61472.00
2018-04-28T05:42:48.542Z,58208.00
2018-04-28T05:43:48.734Z,60640.00
2018-04-28T05:44:48.932Z,62784.00
2018-04-28T05:45:49.132Z,63616.00
2018-04-28T05:46:49.328Z,64512.00
2018-04-28T05:47:49.525Z,65760.00
2018-04-28T05:48:49.724Z,60736.00
2018-04-28T05:49:49.922Z,59104.00
2018-04-28T05:50:50.120Z,56128.00
2018-04-28T05:51:50.319Z,60096.00
2018-04-28T05:52:50.519Z,55680.00
2018-04-28T05:53:50.716Z,52960.00
2018-04-28T05:54:50.916Z,54624.00
2018-04-28T05:55:51.115Z,53088.00
2018-04-28T05:56:51.313Z,53792.00
2018-04-28T05:57:51.535Z,55680.00
2018-04-28T05:58:51.710Z,55296.00
2018-04-28T05:59:51.911Z,54048.00
2018-04-28T06:00:52.111Z,57664.00
2018-04-28T06:01:52.309Z,62112.00
2018-04-28T06:02:52.510Z,62880.00
2018-04-28T06:03:52.712Z,57088.00
2018-04-28T06:04:52.909Z,49568.00
2018-04-28T06:05:53.108Z,46656.00
2018-04-28T06:06:53.314Z,45536.00
2018-04-28T06:07:53.508Z,49888.00
2018-04-28T06:08:53.706Z,53824.00
2018-04-28T06:09:53.906Z,60448.00
2018-04-28T06:10:54.106Z,60064.00
2018-04-28T06:11:54.305Z,52640.00
2018-04-28T06:12:54.502Z,61600.00
2018-04-28T06:13:54.702Z,59648.00
2018-04-28T06:14:54.904Z,64640.00
2018-04-28T06:15:55.105Z,64992.00
2018-04-28T06:16:55.306Z,68416.00
2018-04-28T06:17:55.504Z,67552.00
2018-04-28T06:18:55.706Z,70048.00
2018-04-28T06:19:55.913Z,77824.00
2018-04-28T06:20:56.107Z,80544.00
2018-04-28T06:21:56.308Z,66816.00
2018-04-28T06:22:56.508Z,86656.00
2018-04-28T06:23:56.707Z,91744.00
2018-04-28T06:24:56.907Z,93888.00
2018-04-28T06:25:57.202Z,91616.00
2018-04-28T06:26:57.309Z,95328.00
2018-04-28T06:27:57.508Z,95648.00
2018-04-28T06:28:57.711Z,96480.00
2018-04-28T06:29:57.914Z,61696.00
2018-04-28T06:30:58.116Z,101952.00
2018-04-28T06:31:58.317Z,97024.00
2018-04-28T06:32:58.520Z,94240.00
2018-04-28T06:33:58.721Z,96416.00
2018-04-28T06:34:58.923Z,104832.00
2018-04-28T06:35:59.127Z,103616.00
2018-04-28T06:36:59.329Z,48576.00
2018-04-28T06:37:59.531Z,105248.00
2018-04-28T06:38:59.733Z,107424.00
2018-04-28T06:39:59.935Z,97568.00
2018-04-28T06:41:00.136Z,80992.00
2018-04-28T06:42:00.337Z,77792.00
2018-04-28T06:43:00.543Z,92064.00
2018-04-28T06:44:00.745Z,92768.00
2018-04-28T06:45:00.949Z,101024.00
2018-04-28T06:46:01.152Z,100608.00
2018-04-28T06:47:01.356Z,76416.00
2018-04-28T06:48:01.560Z,100736.00
2018-04-28T06:49:01.766Z,102688.00
2018-04-28T06:50:01.971Z,105952.00
2018-04-28T06:51:02.194Z,106560.00
2018-04-28T06:52:02.376Z,105440.00
2018-04-28T06:53:02.580Z,108448.00
2018-04-28T06:54:02.784Z,106880.00
2018-04-28T06:55:02.991Z,104768.00
2018-04-28T06:56:03.192Z,107200.00
2018-04-28T06:57:03.397Z,105408.00
2018-04-28T06:58:03.603Z,103040.00
2018-04-28T06:59:03.806Z,103232.00
2018-04-28T07:00:04.011Z,102016.00
2018-04-28T07:01:04.215Z,104224.00
2018-04-28T07:02:04.419Z,107584.00
2018-04-28T07:03:04.625Z,112480.00
2018-04-28T07:04:04.830Z,113600.00
2018-04-28T07:05:05.034Z,110720.00
2018-04-28T07:06:05.238Z,111072.00
2018-04-28T07:07:05.443Z,109184.00
2018-04-28T07:08:05.648Z,106272.00
2018-04-28T07:09:05.853Z,106560.00
2018-04-28T07:10:06.059Z,105632.00
2018-04-28T07:11:06.264Z,104608.00
2018-04-28T07:12:06.466Z,102688.00
2018-04-28T07:13:06.670Z,103136.00
2018-04-28T07:14:06.877Z,103456.00
2018-04-28T07:15:07.082Z,105664.00
2018-04-28T07:16:07.285Z,106112.00
2018-04-28T07:17:07.492Z,107616.00
2018-04-28T07:18:07.694Z,108256.00
2018-04-28T07:19:07.898Z,108000.00
2018-04-28T07:20:08.103Z,105728.00
2018-04-28T07:21:08.320Z,101856.00
2018-04-28T07:22:08.515Z,101696.00
2018-04-28T07:23:08.721Z,100352.00
2018-04-28T07:24:08.926Z,108192.00
2018-04-28T07:25:09.129Z,110592.00
2018-04-28T07:26:09.336Z,110720.00
2018-04-28T07:27:09.538Z,108960.00
2018-04-28T07:28:09.746Z,109728.00
2018-04-28T07:29:09.999Z,69280.00
2018-04-28T07:30:10.155Z,106752.00
2018-04-28T07:31:10.362Z,106784.00
2018-04-28T07:32:10.571Z,107008.00
2018-04-28T07:33:10.773Z,106400.00
2018-04-28T07:34:10.977Z,107424.00
2018-04-28T07:35:11.182Z,100896.00
2018-04-28T07:36:11.389Z,105536.00
2018-04-28T07:37:11.594Z,106496.00
2018-04-28T07:38:11.799Z,109632.00
2018-04-28T07:39:12.006Z,109760.00
2018-04-28T07:40:12.211Z,109152.00
2018-04-28T07:41:12.417Z,106432.00
2018-04-28T07:42:12.632Z,108800.00
2018-04-28T07:43:12.828Z,104192.00
2018-04-28T07:44:13.032Z,107392.00
2018-04-28T07:45:13.239Z,107232.00
2018-04-28T07:46:13.441Z,105568.00
2018-04-28T07:47:13.645Z,108032.00
2018-04-28T07:48:13.852Z,108608.00
2018-04-28T07:49:14.057Z,108960.00
2018-04-28T07:50:14.262Z,105184.00
2018-04-28T07:51:14.467Z,108800.00
2018-04-28T07:52:14.674Z,107360.00
2018-04-28T07:53:14.879Z,106304.00
2018-04-28T07:54:15.084Z,106688.00
2018-04-28T07:55:15.289Z,100256.00
2018-04-28T07:56:15.495Z,105440.00
2018-04-28T07:57:15.700Z,110080.00
2018-04-28T07:58:15.904Z,110208.00
2018-04-28T07:59:16.108Z,109920.00
2018-04-28T08:00:16.374Z,108192.00
2018-04-28T08:01:16.518Z,108128.00
2018-04-28T08:02:16.722Z,109920.00
2018-04-28T08:03:16.926Z,113984.00
2018-04-28T08:04:17.131Z,111424.00
2018-04-28T08:05:17.335Z,113152.00
2018-04-28T08:06:17.540Z,116480.00
2018-04-28T08:07:17.745Z,114848.00
2018-04-28T08:08:17.949Z,107904.00
2018-04-28T08:09:18.157Z,116832.00
2018-04-28T08:10:18.361Z,115520.00
2018-04-28T08:11:18.566Z,115168.00
2018-04-28T08:12:18.768Z,113120.00
2018-04-28T08:13:18.973Z,112800.00
2018-04-28T08:14:19.177Z,112544.00
2018-04-28T08:15:19.448Z,111744.00
2018-04-28T08:16:19.588Z,113920.00
2018-04-28T08:17:19.791Z,112576.00
2018-04-28T08:18:19.996Z,116640.00
2018-04-28T08:19:20.199Z,114176.00
2018-04-28T08:20:20.401Z,118176.00
2018-04-28T08:21:20.608Z,121152.00
2018-04-28T08:22:20.815Z,122688.00
2018-04-28T08:23:21.018Z,121376.00
2018-04-28T08:24:21.223Z,117312.00
2018-04-28T08:25:21.427Z,115552.00
2018-04-28T08:26:21.631Z,118784.00
2018-04-28T08:27:21.836Z,117312.00
2018-04-28T08:28:22.041Z,117984.00
2018-04-28T08:29:22.242Z,120416.00
2018-04-28T08:30:22.445Z,120000.00
2018-04-28T08:31:22.650Z,123424.00
2018-04-28T08:32:22.852Z,124352.00
2018-04-28T08:33:23.057Z,124416.00
2018-04-28T08:34:23.259Z,123712.00
2018-04-28T08:35:23.457Z,126208.00
2018-04-28T08:36:23.660Z,126752.00
2018-04-28T08:37:23.937Z,125504.00
2018-04-28T08:38:24.068Z,125568.00
2018-04-28T08:39:24.272Z,128064.00
2018-04-28T08:40:24.478Z,129600.00
2018-04-28T08:41:24.682Z,132160.00
2018-04-28T08:42:24.883Z,133344.00
2018-04-28T08:43:25.091Z,131392.00
2018-04-28T08:44:25.291Z,128160.00
2018-04-28T08:45:25.496Z,127104.00
2018-04-28T08:46:25.697Z,126208.00
2018-04-28T08:47:25.901Z,124064.00
2018-04-28T08:48:26.103Z,122752.00
2018-04-28T08:49:26.307Z,124832.00
2018-04-28T08:50:26.514Z,125248.00
2018-04-28T08:51:26.710Z,127456.00
2018-04-28T08:52:26.915Z,126816.00
2018-04-28T08:53:27.116Z,125920.00
2018-04-28T08:54:27.325Z,125120.00
2018-04-28T08:55:27.524Z,123968.00
2018-04-28T08:56:27.723Z,124224.00
2018-04-28T08:57:27.927Z,126688.00
2018-04-28T08:58:28.128Z,127200.00
2018-04-28T08:59:28.333Z,125856.00
2018-04-28T09:00:28.532Z,124544.00
2018-04-28T09:01:28.737Z,123680.00
2018-04-28T09:02:28.938Z,124544.00
2018-04-28T09:03:29.138Z,126080.00
2018-04-28T09:04:29.338Z,126048.00
2018-04-28T09:05:29.541Z,126080.00
2018-04-28T09:06:29.744Z,125952.00
2018-04-28T09:07:29.947Z,124640.00
2018-04-28T09:08:30.147Z,123360.00
2018-04-28T09:09:30.348Z,120928.00
2018-04-28T09:10:30.549Z,118944.00
2018-04-28T09:11:30.791Z,118048.00
2018-04-28T09:12:30.953Z,117184.00
2018-04-28T09:13:31.153Z,117664.00
2018-04-28T09:14:31.354Z,118400.00
2018-04-28T09:15:31.558Z,118304.00
2018-04-28T09:16:31.760Z,117408.00
2018-04-28T09:17:31.957Z,115872.00
2018-04-28T09:18:32.158Z,116512.00
2018-04-28T09:19:32.407Z,118624.00
2018-04-28T09:20:32.560Z,118016.00
2018-04-28T09:21:32.763Z,116576.00
2018-04-28T09:22:32.962Z,117120.00
2018-04-28T09:23:33.163Z,117152.00
2018-04-28T09:24:33.363Z,115424.00
2018-04-28T09:25:33.566Z,114400.00
2018-04-28T09:26:33.765Z,113056.00
2018-04-28T09:27:33.963Z,111296.00
2018-04-28T09:28:34.165Z,110368.00
2018-04-28T09:29:34.367Z,111520.00
2018-04-28T09:30:34.567Z,113184.00
2018-04-28T09:31:34.770Z,110976.00
2018-04-28T09:32:34.968Z,109440.00
2018-04-28T09:33:35.168Z,106240.00
2018-04-28T09:34:35.375Z,100544.00
2018-04-28T09:35:35.569Z,80256.00
2018-04-28T09:36:35.767Z,54880.00
2018-04-28T09:37:35.965Z,39264.00
2018-04-28T09:38:36.166Z,35424.00
2018-04-28T09:39:36.365Z,34112.00
2018-04-28T09:40:36.567Z,32960.00
2018-04-28T09:41:36.766Z,32256.00
2018-04-28T09:42:36.966Z,32064.00
2018-04-28T09:43:37.166Z,32288.00
2018-04-28T09:44:37.366Z,32736.00
2018-04-28T09:45:37.565Z,32832.00
2018-04-28T09:46:37.764Z,32640.00
2018-04-28T09:47:37.965Z,31616.00
2018-04-28T09:48:38.166Z,30048.00
2018-04-28T09:49:38.366Z,27584.00
2018-04-28T09:50:38.564Z,24704.00
2018-04-28T09:51:38.766Z,23328.00
2018-04-28T09:52:38.967Z,22080.00
2018-04-28T09:53:39.166Z,20736.00
2018-04-28T09:54:39.366Z,19328.00
2018-04-28T09:55:39.556Z,18016.00
2018-04-28T09:56:39.754Z,16684.00
2018-04-28T09:57:39.952Z,15696.00
2018-04-28T09:58:40.149Z,15180.00
2018-04-28T09:59:40.354Z,14772.00
2018-04-28T10:00:40.547Z,14456.00
2018-04-28T10:01:40.750Z,14304.00
2018-04-28T10:02:40.942Z,14256.00
2018-04-28T10:03:41.140Z,14272.00
2018-04-28T10:04:41.335Z,14268.00
2018-04-28T10:05:41.534Z,14280.00
2018-04-28T10:06:41.730Z,14180.00
2018-04-28T10:07:41.928Z,13348.00
2018-04-28T10:08:42.126Z,14044.00
2018-04-28T10:09:42.321Z,15016.00
2018-04-28T10:10:42.520Z,15692.00
2018-04-28T10:11:42.716Z,15772.00
2018-04-28T10:12:42.929Z,15908.00
2018-04-28T10:13:43.106Z,16208.00
2018-04-28T10:14:43.301Z,16132.00
2018-04-28T10:15:43.501Z,15976.00
2018-04-28T10:16:43.695Z,16120.00
2018-04-28T10:17:43.890Z,15908.00
2018-04-28T10:18:44.086Z,15584.00
2018-04-28T10:19:44.284Z,14996.00
2018-04-28T10:20:44.482Z,14404.00
2018-04-28T10:21:44.676Z,14180.00
2018-04-28T10:22:44.873Z,14076.00
2018-04-28T10:23:45.074Z,13972.00
2018-04-28T10:24:45.266Z,13592.00
2018-04-28T10:25:45.459Z,12604.00
2018-04-28T10:26:45.659Z,11920.00
2018-04-28T10:27:45.856Z,11832.00
2018-04-28T10:28:46.054Z,11860.00
2018-04-28T10:29:46.250Z,11880.00
2018-04-28T10:30:46.483Z,11880.00
2018-04-28T10:31:46.639Z,11880.00
2018-04-28T10:32:46.835Z,11948.00
2018-04-28T10:33:47.030Z,12096.00
2018-04-28T10:34:47.224Z,12340.00
2018-04-28T10:35:47.424Z,12656.00
2018-04-28T10:36:47.616Z,12988.00
2018-04-28T10:37:47.810Z,13188.00
2018-04-28T10:38:48.009Z,13660.00
2018-04-28T10:39:48.203Z,14344.00
2018-04-28T10:40:48.397Z,15952.00
2018-04-28T10:41:48.592Z,23744.00
2018-04-28T10:42:48.786Z,58496.00
2018-04-28T10:43:48.982Z,110336.00
2018-04-28T10:44:49.177Z,145440.00
2018-04-28T10:45:49.373Z,150336.00
2018-04-28T10:46:49.568Z,134976.00
2018-04-28T10:47:49.763Z,134688.00
2018-04-28T10:48:49.960Z,105440.00
2018-04-28T10:49:50.155Z,110944.00
2018-04-28T10:50:50.353Z,99168.00
2018-04-28T10:51:50.546Z,92288.00
2018-04-28T10:52:50.741Z,84448.00
2018-04-28T10:53:50.990Z,78080.00
2018-04-28T10:54:51.135Z,81600.00
2018-04-28T10:55:51.330Z,82272.00
2018-04-28T10:56:51.526Z,86528.00
2018-04-28T10:57:51.720Z,77280.00
2018-04-28T10:58:51.916Z,59072.00
2018-04-28T10:59:52.113Z,42080.00
2018-04-28T11:00:52.307Z,33824.00
2018-04-28T11:01:52.501Z,31520.00
2018-04-28T11:02:52.703Z,27200.00
2018-04-28T11:03:52.894Z,26592.00
2018-04-28T11:04:53.094Z,25472.00
2018-04-28T11:05:53.288Z,21984.00
2018-04-28T11:06:53.483Z,16588.00
2018-04-28T11:07:53.676Z,12520.00
2018-04-28T11:08:53.872Z,11224.00
2018-04-28T11:09:54.069Z,10820.00
2018-04-28T11:10:54.265Z,10544.00
2018-04-28T11:11:54.459Z,10616.00
2018-04-28T11:12:54.656Z,10868.00
2018-04-28T11:13:54.869Z,10556.00
2018-04-28T11:14:55.043Z,10624.00
2018-04-28T11:15:55.240Z,10040.00
2018-04-28T11:16:55.434Z,10916.00
2018-04-28T11:17:55.630Z,11104.00
2018-04-28T11:18:55.826Z,12204.00
2018-04-28T11:19:56.081Z,13412.00
2018-04-28T11:20:56.220Z,14456.00
2018-04-28T11:21:56.413Z,15840.00
2018-04-28T11:22:56.608Z,16460.00
2018-04-28T11:23:56.804Z,16464.00
2018-04-28T11:24:56.999Z,16080.00
2018-04-28T11:25:57.192Z,15732.00
2018-04-28T11:26:57.386Z,15448.00
2018-04-28T11:27:57.581Z,15104.00
2018-04-28T11:28:57.775Z,14544.00
2018-04-28T11:29:57.969Z,14364.00
2018-04-28T11:30:58.164Z,13828.00
2018-04-28T11:31:58.357Z,13472.00
2018-04-28T11:32:58.593Z,13504.00
2018-04-28T11:33:58.746Z,13488.00
2018-04-28T11:34:58.941Z,13556.00
2018-04-28T11:35:59.133Z,14640.00
2018-04-28T11:36:59.328Z,15528.00
2018-04-28T11:37:59.523Z,15808.00
2018-04-28T11:38:59.716Z,16308.00
2018-04-28T11:39:59.910Z,16392.00
2018-04-28T11:41:00.105Z,16136.00
2018-04-28T11:42:00.299Z,15540.00
2018-04-28T11:43:00.492Z,15288.00
2018-04-28T11:44:00.691Z,15452.00
2018-04-28T11:45:00.882Z,15212.00
2018-04-28T11:46:01.078Z,15516.00
2018-04-28T11:47:01.271Z,15756.00
2018-04-28T11:48:01.463Z,15872.00
2018-04-28T11:49:01.659Z,15816.00
2018-04-28T11:50:01.852Z,15492.00
2018-04-28T11:51:02.047Z,15088.00
2018-04-28T11:52:02.241Z,14176.00
2018-04-28T11:53:02.436Z,14024.00
2018-04-28T11:54:02.631Z,13444.00
2018-04-28T11:55:02.829Z,12652.00
2018-04-28T11:56:03.124Z,13168.00
2018-04-28T11:57:03.194Z,14276.00
2018-04-28T11:58:03.457Z,16480.00
2018-04-28T11:59:03.545Z,18336.00
2018-04-28T12:00:03.824Z,19424.00
2018-04-28T12:01:03.893Z,19904.00
2018-04-28T12:02:04.087Z,19488.00
2018-04-28T12:03:04.286Z,18272.00
2018-04-28T12:04:04.478Z,18368.00
2018-04-28T12:05:04.705Z,17952.00
2018-04-28T12:06:04.867Z,17312.00
2018-04-28T12:07:05.063Z,17568.00
2018-04-28T12:08:05.257Z,18208.00
2018-04-28T12:09:05.451Z,18560.00
2018-04-28T12:10:05.649Z,18464.00